sensor_id;sensor_type;location;lat;lon;timestamp;temperature;humidity
72440;DHT22;60446;50.752;4.352;2024-01-11T00:01:48;-5.40;94.80
72440;DHT22;60446;50.752;4.352;2024-01-11T00:04:15;-5.40;95.40
72440;DHT22;60446;50.752;4.352;2024-01-11T00:06:43;-5.40;94.10
72440;DHT22;60446;50.752;4.352;2024-01-11T00:09:12;-5.40;95.40
72440;DHT22;60446;50.752;4.352;2024-01-11T00:11:39;-5.40;95.70
72440;DHT22;60446;50.752;4.352;2024-01-11T00:14:07;-5.30;94.70
72440;DHT22;60446;50.752;4.352;2024-01-11T00:16:34;-5.40;94.70
72440;DHT22;60446;50.752;4.352;2024-01-11T00:19:01;-5.40;93.90
72440;DHT22;60446;50.752;4.352;2024-01-11T00:21:29;-5.50;94.00
72440;DHT22;60446;50.752;4.352;2024-01-11T00:23:56;-5.50;93.70
72440;DHT22;60446;50.752;4.352;2024-01-11T00:26:23;-5.50;94.00
72440;DHT22;60446;50.752;4.352;2024-01-11T00:28:50;-5.50;93.80
72440;DHT22;60446;50.752;4.352;2024-01-11T00:31:18;-5.50;94.10
72440;DHT22;60446;50.752;4.352;2024-01-11T00:33:45;-5.50;93.90
72440;DHT22;60446;50.752;4.352;2024-01-11T00:36:17;-5.60;94.50
72440;DHT22;60446;50.752;4.352;2024-01-11T00:38:49;-5.60;94.40
72440;DHT22;60446;50.752;4.352;2024-01-11T00:41:16;-5.50;93.80
72440;DHT22;60446;50.752;4.352;2024-01-11T00:43:44;-5.60;94.50
72440;DHT22;60446;50.752;4.352;2024-01-11T00:46:11;-5.60;94.90
72440;DHT22;60446;50.752;4.352;2024-01-11T00:48:38;-5.60;95.80
72440;DHT22;60446;50.752;4.352;2024-01-11T00:51:06;-5.60;95.40
72440;DHT22;60446;50.752;4.352;2024-01-11T00:53:33;-5.60;95.40
72440;DHT22;60446;50.752;4.352;2024-01-11T00:56:00;-5.70;95.70
72440;DHT22;60446;50.752;4.352;2024-01-11T00:58:28;-5.70;95.00
72440;DHT22;60446;50.752;4.352;2024-01-11T01:00:55;-5.60;95.00
72440;DHT22;60446;50.752;4.352;2024-01-11T01:03:22;-5.60;95.40
72440;DHT22;60446;50.752;4.352;2024-01-11T01:05:52;-5.60;94.80
72440;DHT22;60446;50.752;4.352;2024-01-11T01:08:20;-5.60;95.60
72440;DHT22;60446;50.752;4.352;2024-01-11T01:10:47;-5.70;95.60
72440;DHT22;60446;50.752;4.352;2024-01-11T01:13:14;-5.70;95.00
72440;DHT22;60446;50.752;4.352;2024-01-11T01:15:41;-5.70;94.80
72440;DHT22;60446;50.752;4.352;2024-01-11T01:18:09;-5.60;95.30
72440;DHT22;60446;50.752;4.352;2024-01-11T01:20:36;-5.70;95.20
72440;DHT22;60446;50.752;4.352;2024-01-11T01:23:04;-5.60;96.20
72440;DHT22;60446;50.752;4.352;2024-01-11T01:25:31;-5.70;95.40
72440;DHT22;60446;50.752;4.352;2024-01-11T01:27:59;-5.70;95.50
72440;DHT22;60446;50.752;4.352;2024-01-11T01:30:28;-5.60;95.10
72440;DHT22;60446;50.752;4.352;2024-01-11T01:32:55;-5.70;94.50
72440;DHT22;60446;50.752;4.352;2024-01-11T01:35:23;-5.70;94.70
72440;DHT22;60446;50.752;4.352;2024-01-11T01:37:51;-5.80;95.00
72440;DHT22;60446;50.752;4.352;2024-01-11T01:40:18;-5.80;95.60
72440;DHT22;60446;50.752;4.352;2024-01-11T01:42:47;-5.80;95.10
72440;DHT22;60446;50.752;4.352;2024-01-11T01:45:15;-5.80;95.40
72440;DHT22;60446;50.752;4.352;2024-01-11T01:47:44;-5.80;96.60
72440;DHT22;60446;50.752;4.352;2024-01-11T01:50:11;-5.80;97.00
72440;DHT22;60446;50.752;4.352;2024-01-11T01:52:41;-5.80;97.00
72440;DHT22;60446;50.752;4.352;2024-01-11T01:55:12;-5.80;96.10
72440;DHT22;60446;50.752;4.352;2024-01-11T01:57:42;-5.80;96.20
72440;DHT22;60446;50.752;4.352;2024-01-11T02:00:11;-5.70;95.30
72440;DHT22;60446;50.752;4.352;2024-01-11T02:02:40;-5.80;95.10
72440;DHT22;60446;50.752;4.352;2024-01-11T02:05:12;-5.80;95.10
72440;DHT22;60446;50.752;4.352;2024-01-11T02:07:41;-5.80;95.70
72440;DHT22;60446;50.752;4.352;2024-01-11T02:10:08;-5.80;95.70
72440;DHT22;60446;50.752;4.352;2024-01-11T02:12:36;-5.80;95.10
72440;DHT22;60446;50.752;4.352;2024-01-11T02:15:06;-5.80;94.40
72440;DHT22;60446;50.752;4.352;2024-01-11T02:17:34;-5.70;94.10
72440;DHT22;60446;50.752;4.352;2024-01-11T02:20:01;-5.70;94.50
72440;DHT22;60446;50.752;4.352;2024-01-11T02:22:40;-5.80;95.20
72440;DHT22;60446;50.752;4.352;2024-01-11T02:25:10;-5.70;96.70
72440;DHT22;60446;50.752;4.352;2024-01-11T02:27:49;-5.80;96.50
72440;DHT22;60446;50.752;4.352;2024-01-11T02:30:17;-5.70;97.80
72440;DHT22;60446;50.752;4.352;2024-01-11T02:32:46;-5.70;97.90
72440;DHT22;60446;50.752;4.352;2024-01-11T02:35:15;-5.70;98.20
72440;DHT22;60446;50.752;4.352;2024-01-11T02:37:44;-5.80;98.10
72440;DHT22;60446;50.752;4.352;2024-01-11T02:40:13;-5.80;97.80
72440;DHT22;60446;50.752;4.352;2024-01-11T02:42:40;-5.80;98.40
72440;DHT22;60446;50.752;4.352;2024-01-11T02:45:08;-5.80;97.20
72440;DHT22;60446;50.752;4.352;2024-01-11T02:47:38;-5.80;97.70
72440;DHT22;60446;50.752;4.352;2024-01-11T02:50:06;-5.90;97.10
72440;DHT22;60446;50.752;4.352;2024-01-11T02:52:34;-5.90;96.80
72440;DHT22;60446;50.752;4.352;2024-01-11T02:55:02;-5.90;97.20
72440;DHT22;60446;50.752;4.352;2024-01-11T02:57:29;-5.90;97.00
72440;DHT22;60446;50.752;4.352;2024-01-11T02:59:56;-5.90;97.80
72440;DHT22;60446;50.752;4.352;2024-01-11T03:02:24;-5.90;99.00
72440;DHT22;60446;50.752;4.352;2024-01-11T03:04:51;-6.00;97.60
72440;DHT22;60446;50.752;4.352;2024-01-11T03:07:18;-6.10;99.50
72440;DHT22;60446;50.752;4.352;2024-01-11T03:09:45;-6.00;99.30
72440;DHT22;60446;50.752;4.352;2024-01-11T03:12:13;-6.00;99.40
72440;DHT22;60446;50.752;4.352;2024-01-11T03:14:40;-6.00;99.90
72440;DHT22;60446;50.752;4.352;2024-01-11T03:17:07;-6.00;98.30
72440;DHT22;60446;50.752;4.352;2024-01-11T03:19:39;-6.20;99.00
72440;DHT22;60446;50.752;4.352;2024-01-11T03:22:08;-6.20;99.00
72440;DHT22;60446;50.752;4.352;2024-01-11T03:24:38;-6.10;99.90
72440;DHT22;60446;50.752;4.352;2024-01-11T03:27:06;-6.10;99.90
72440;DHT22;60446;50.752;4.352;2024-01-11T03:29:33;-6.20;99.90
72440;DHT22;60446;50.752;4.352;2024-01-11T03:32:01;-6.20;99.90
72440;DHT22;60446;50.752;4.352;2024-01-11T03:34:28;-6.10;99.90
72440;DHT22;60446;50.752;4.352;2024-01-11T03:36:56;-6.20;99.90
72440;DHT22;60446;50.752;4.352;2024-01-11T03:39:25;-6.20;99.90
72440;DHT22;60446;50.752;4.352;2024-01-11T03:41:52;-6.20;99.90
72440;DHT22;60446;50.752;4.352;2024-01-11T03:44:19;-6.20;99.90
72440;DHT22;60446;50.752;4.352;2024-01-11T03:46:48;-6.20;99.80
72440;DHT22;60446;50.752;4.352;2024-01-11T03:49:15;-6.20;99.90
72440;DHT22;60446;50.752;4.352;2024-01-11T03:51:42;-6.20;99.90
72440;DHT22;60446;50.752;4.352;2024-01-11T03:54:10;-6.30;99.90
72440;DHT22;60446;50.752;4.352;2024-01-11T03:56:38;-6.30;99.90
72440;DHT22;60446;50.752;4.352;2024-01-11T03:59:06;-6.20;99.90
72440;DHT22;60446;50.752;4.352;2024-01-11T04:01:39;-6.20;99.90
72440;DHT22;60446;50.752;4.352;2024-01-11T04:04:10;-6.30;99.90
72440;DHT22;60446;50.752;4.352;2024-01-11T04:06:37;-6.30;99.90
72440;DHT22;60446;50.752;4.352;2024-01-11T04:09:05;-6.30;99.90
72440;DHT22;60446;50.752;4.352;2024-01-11T04:11:32;-6.40;99.90
72440;DHT22;60446;50.752;4.352;2024-01-11T04:14:00;-6.40;99.90
72440;DHT22;60446;50.752;4.352;2024-01-11T04:16:27;-6.40;99.90
72440;DHT22;60446;50.752;4.352;2024-01-11T04:18:54;-6.40;99.90
72440;DHT22;60446;50.752;4.352;2024-01-11T04:21:30;-6.40;99.90
72440;DHT22;60446;50.752;4.352;2024-01-11T04:23:57;-6.40;99.90
72440;DHT22;60446;50.752;4.352;2024-01-11T04:26:26;-6.40;99.90
72440;DHT22;60446;50.752;4.352;2024-01-11T04:28:54;-6.40;99.90
72440;DHT22;60446;50.752;4.352;2024-01-11T04:31:26;-6.40;99.90
72440;DHT22;60446;50.752;4.352;2024-01-11T04:33:54;-6.40;99.90
72440;DHT22;60446;50.752;4.352;2024-01-11T04:36:21;-6.40;99.90
72440;DHT22;60446;50.752;4.352;2024-01-11T04:38:48;-6.40;99.90
72440;DHT22;60446;50.752;4.352;2024-01-11T04:41:16;-6.40;99.90
72440;DHT22;60446;50.752;4.352;2024-01-11T04:43:44;-6.50;99.90
72440;DHT22;60446;50.752;4.352;2024-01-11T04:46:23;-6.50;99.90
72440;DHT22;60446;50.752;4.352;2024-01-11T04:48:50;-6.50;99.90
72440;DHT22;60446;50.752;4.352;2024-01-11T04:51:18;-6.60;99.90
72440;DHT22;60446;50.752;4.352;2024-01-11T04:53:46;-6.60;99.90
72440;DHT22;60446;50.752;4.352;2024-01-11T04:56:15;-6.70;99.90
72440;DHT22;60446;50.752;4.352;2024-01-11T04:58:44;-6.80;99.90
72440;DHT22;60446;50.752;4.352;2024-01-11T05:01:16;-6.80;99.90
72440;DHT22;60446;50.752;4.352;2024-01-11T05:03:45;-6.70;99.90
72440;DHT22;60446;50.752;4.352;2024-01-11T05:06:18;-6.80;99.90
72440;DHT22;60446;50.752;4.352;2024-01-11T05:08:48;-6.80;99.90
72440;DHT22;60446;50.752;4.352;2024-01-11T05:11:23;-6.80;99.90
72440;DHT22;60446;50.752;4.352;2024-01-11T05:13:53;-6.70;99.90
72440;DHT22;60446;50.752;4.352;2024-01-11T05:18:51;-6.80;99.90
72440;DHT22;60446;50.752;4.352;2024-01-11T05:21:19;-6.80;99.90
72440;DHT22;60446;50.752;4.352;2024-01-11T05:23:48;-6.80;99.90
72440;DHT22;60446;50.752;4.352;2024-01-11T05:26:16;-6.80;99.90
72440;DHT22;60446;50.752;4.352;2024-01-11T05:28:46;-6.90;99.90
72440;DHT22;60446;50.752;4.352;2024-01-11T05:31:14;-6.90;99.90
72440;DHT22;60446;50.752;4.352;2024-01-11T05:33:43;-6.80;99.90
72440;DHT22;60446;50.752;4.352;2024-01-11T05:36:11;-6.80;99.90
72440;DHT22;60446;50.752;4.352;2024-01-11T05:38:39;-6.80;99.90
72440;DHT22;60446;50.752;4.352;2024-01-11T05:41:10;-6.80;99.90
72440;DHT22;60446;50.752;4.352;2024-01-11T05:43:38;-6.80;99.90
72440;DHT22;60446;50.752;4.352;2024-01-11T05:46:06;-6.90;99.90
72440;DHT22;60446;50.752;4.352;2024-01-11T05:48:34;-6.90;99.90
72440;DHT22;60446;50.752;4.352;2024-01-11T05:51:01;-6.80;99.90
72440;DHT22;60446;50.752;4.352;2024-01-11T05:53:29;-6.90;99.90
72440;DHT22;60446;50.752;4.352;2024-01-11T05:55:57;-6.90;99.90
72440;DHT22;60446;50.752;4.352;2024-01-11T05:58:24;-6.80;99.90
72440;DHT22;60446;50.752;4.352;2024-01-11T06:00:51;-6.90;99.90
72440;DHT22;60446;50.752;4.352;2024-01-11T06:03:18;-6.90;99.90
72440;DHT22;60446;50.752;4.352;2024-01-11T06:05:51;-6.90;99.90
72440;DHT22;60446;50.752;4.352;2024-01-11T06:08:19;-6.90;99.90
72440;DHT22;60446;50.752;4.352;2024-01-11T06:10:46;-6.80;99.90
72440;DHT22;60446;50.752;4.352;2024-01-11T06:13:13;-6.80;99.90
72440;DHT22;60446;50.752;4.352;2024-01-11T06:15:40;-6.80;99.90
72440;DHT22;60446;50.752;4.352;2024-01-11T06:18:07;-6.90;99.90
72440;DHT22;60446;50.752;4.352;2024-01-11T06:20:35;-6.90;99.90
72440;DHT22;60446;50.752;4.352;2024-01-11T06:23:02;-6.90;99.90
72440;DHT22;60446;50.752;4.352;2024-01-11T06:25:30;-6.90;99.90
72440;DHT22;60446;50.752;4.352;2024-01-11T06:27:57;-6.80;99.90
72440;DHT22;60446;50.752;4.352;2024-01-11T06:30:24;-6.80;99.90
72440;DHT22;60446;50.752;4.352;2024-01-11T06:32:51;-6.80;99.90
72440;DHT22;60446;50.752;4.352;2024-01-11T06:35:18;-6.80;99.90
72440;DHT22;60446;50.752;4.352;2024-01-11T06:37:46;-6.80;99.90
72440;DHT22;60446;50.752;4.352;2024-01-11T06:40:13;-6.80;99.90
72440;DHT22;60446;50.752;4.352;2024-01-11T06:42:40;-6.80;99.90
72440;DHT22;60446;50.752;4.352;2024-01-11T06:45:09;-6.80;99.90
72440;DHT22;60446;50.752;4.352;2024-01-11T06:47:36;-6.90;99.90
72440;DHT22;60446;50.752;4.352;2024-01-11T06:50:03;-6.80;99.90
72440;DHT22;60446;50.752;4.352;2024-01-11T06:52:31;-6.90;99.90
72440;DHT22;60446;50.752;4.352;2024-01-11T06:54:58;-6.90;99.90
72440;DHT22;60446;50.752;4.352;2024-01-11T06:57:26;-6.80;99.90
72440;DHT22;60446;50.752;4.352;2024-01-11T06:59:53;-6.90;99.90
72440;DHT22;60446;50.752;4.352;2024-01-11T07:02:20;-6.90;99.90
72440;DHT22;60446;50.752;4.352;2024-01-11T07:04:47;-7.00;99.90
72440;DHT22;60446;50.752;4.352;2024-01-11T07:07:14;-7.00;99.90
72440;DHT22;60446;50.752;4.352;2024-01-11T07:09:41;-7.00;99.90
72440;DHT22;60446;50.752;4.352;2024-01-11T07:12:09;-7.00;99.90
72440;DHT22;60446;50.752;4.352;2024-01-11T07:14:36;-7.10;99.90
72440;DHT22;60446;50.752;4.352;2024-01-11T07:17:04;-7.20;99.90
72440;DHT22;60446;50.752;4.352;2024-01-11T07:19:31;-7.10;99.90
72440;DHT22;60446;50.752;4.352;2024-01-11T07:21:59;-7.10;99.90
72440;DHT22;60446;50.752;4.352;2024-01-11T07:24:26;-7.10;99.90
72440;DHT22;60446;50.752;4.352;2024-01-11T07:26:58;-7.10;99.90
72440;DHT22;60446;50.752;4.352;2024-01-11T07:29:25;-7.00;99.90
72440;DHT22;60446;50.752;4.352;2024-01-11T07:31:53;-7.10;99.90
72440;DHT22;60446;50.752;4.352;2024-01-11T07:34:20;-7.10;99.90
72440;DHT22;60446;50.752;4.352;2024-01-11T07:36:47;-7.20;99.90
72440;DHT22;60446;50.752;4.352;2024-01-11T07:39:15;-7.20;99.90
72440;DHT22;60446;50.752;4.352;2024-01-11T07:41:42;-7.10;99.90
72440;DHT22;60446;50.752;4.352;2024-01-11T07:44:09;-7.10;99.90
72440;DHT22;60446;50.752;4.352;2024-01-11T07:46:36;-7.10;99.90
72440;DHT22;60446;50.752;4.352;2024-01-11T07:49:16;-7.00;99.90
72440;DHT22;60446;50.752;4.352;2024-01-11T07:51:43;-7.10;99.90
72440;DHT22;60446;50.752;4.352;2024-01-11T07:54:10;-7.10;99.90
72440;DHT22;60446;50.752;4.352;2024-01-11T07:56:37;-7.10;99.90
72440;DHT22;60446;50.752;4.352;2024-01-11T07:59:05;-7.10;99.90
72440;DHT22;60446;50.752;4.352;2024-01-11T08:01:32;-7.10;99.90
72440;DHT22;60446;50.752;4.352;2024-01-11T08:04:02;-7.10;99.90
72440;DHT22;60446;50.752;4.352;2024-01-11T08:06:30;-7.20;99.90
72440;DHT22;60446;50.752;4.352;2024-01-11T08:08:57;-7.20;99.90
72440;DHT22;60446;50.752;4.352;2024-01-11T08:11:25;-7.20;99.90
72440;DHT22;60446;50.752;4.352;2024-01-11T08:13:54;-7.20;99.90
72440;DHT22;60446;50.752;4.352;2024-01-11T08:16:22;-7.20;99.90
72440;DHT22;60446;50.752;4.352;2024-01-11T08:18:50;-7.20;99.90
72440;DHT22;60446;50.752;4.352;2024-01-11T08:21:17;-7.10;99.90
72440;DHT22;60446;50.752;4.352;2024-01-11T08:23:45;-6.90;99.90
72440;DHT22;60446;50.752;4.352;2024-01-11T08:26:15;-6.90;99.90
72440;DHT22;60446;50.752;4.352;2024-01-11T08:28:43;-6.90;99.90
72440;DHT22;60446;50.752;4.352;2024-01-11T08:31:10;-6.90;99.90
72440;DHT22;60446;50.752;4.352;2024-01-11T08:33:38;-7.00;99.90
72440;DHT22;60446;50.752;4.352;2024-01-11T08:36:06;-7.00;99.90
72440;DHT22;60446;50.752;4.352;2024-01-11T08:38:34;-7.00;99.90
72440;DHT22;60446;50.752;4.352;2024-01-11T08:41:02;-7.00;99.90
72440;DHT22;60446;50.752;4.352;2024-01-11T08:43:30;-6.90;99.90
72440;DHT22;60446;50.752;4.352;2024-01-11T08:45:58;-6.80;99.90
72440;DHT22;60446;50.752;4.352;2024-01-11T08:48:26;-6.80;99.90
72440;DHT22;60446;50.752;4.352;2024-01-11T08:50:54;-6.80;99.90
72440;DHT22;60446;50.752;4.352;2024-01-11T08:53:21;-6.80;99.90
72440;DHT22;60446;50.752;4.352;2024-01-11T08:55:48;-6.80;99.90
72440;DHT22;60446;50.752;4.352;2024-01-11T08:58:15;-6.80;99.90
72440;DHT22;60446;50.752;4.352;2024-01-11T09:00:43;-6.70;99.90
72440;DHT22;60446;50.752;4.352;2024-01-11T09:03:13;-6.70;99.90
72440;DHT22;60446;50.752;4.352;2024-01-11T09:05:42;-6.70;99.90
72440;DHT22;60446;50.752;4.352;2024-01-11T09:08:09;-6.60;99.90
72440;DHT22;60446;50.752;4.352;2024-01-11T09:10:37;-6.70;99.90
72440;DHT22;60446;50.752;4.352;2024-01-11T09:13:04;-6.70;99.90
72440;DHT22;60446;50.752;4.352;2024-01-11T09:15:31;-6.70;99.90
72440;DHT22;60446;50.752;4.352;2024-01-11T09:17:59;-6.60;99.90
72440;DHT22;60446;50.752;4.352;2024-01-11T09:20:30;-6.50;99.90
72440;DHT22;60446;50.752;4.352;2024-01-11T09:22:57;-6.50;99.90
72440;DHT22;60446;50.752;4.352;2024-01-11T09:25:24;-6.40;99.90
72440;DHT22;60446;50.752;4.352;2024-01-11T09:27:52;-6.30;99.90
72440;DHT22;60446;50.752;4.352;2024-01-11T09:30:20;-6.20;99.90
72440;DHT22;60446;50.752;4.352;2024-01-11T09:32:47;-6.10;99.90
72440;DHT22;60446;50.752;4.352;2024-01-11T09:35:14;-6.10;99.90
72440;DHT22;60446;50.752;4.352;2024-01-11T09:37:42;-6.00;99.90
72440;DHT22;60446;50.752;4.352;2024-01-11T09:40:12;-5.90;99.90
72440;DHT22;60446;50.752;4.352;2024-01-11T09:42:40;-5.90;99.90
72440;DHT22;60446;50.752;4.352;2024-01-11T09:45:09;-5.80;99.90
72440;DHT22;60446;50.752;4.352;2024-01-11T09:47:39;-5.80;99.90
72440;DHT22;60446;50.752;4.352;2024-01-11T09:50:09;-5.80;99.90
72440;DHT22;60446;50.752;4.352;2024-01-11T09:52:37;-5.60;99.90
72440;DHT22;60446;50.752;4.352;2024-01-11T09:55:05;-5.50;99.90
72440;DHT22;60446;50.752;4.352;2024-01-11T09:57:35;-5.40;99.90
72440;DHT22;60446;50.752;4.352;2024-01-11T10:00:04;-5.40;99.90
72440;DHT22;60446;50.752;4.352;2024-01-11T10:02:36;-5.40;99.90
72440;DHT22;60446;50.752;4.352;2024-01-11T10:05:03;-5.30;99.90
72440;DHT22;60446;50.752;4.352;2024-01-11T10:07:32;-5.20;99.90
72440;DHT22;60446;50.752;4.352;2024-01-11T10:10:01;-5.10;99.90
72440;DHT22;60446;50.752;4.352;2024-01-11T10:12:30;-5.00;99.90
72440;DHT22;60446;50.752;4.352;2024-01-11T10:15:05;-4.90;99.40
72440;DHT22;60446;50.752;4.352;2024-01-11T10:17:40;-4.90;98.50
72440;DHT22;60446;50.752;4.352;2024-01-11T10:20:11;-4.80;97.50
72440;DHT22;60446;50.752;4.352;2024-01-11T10:22:41;-4.80;98.50
72440;DHT22;60446;50.752;4.352;2024-01-11T10:25:13;-4.70;97.40
72440;DHT22;60446;50.752;4.352;2024-01-11T10:27:44;-4.70;95.70
72440;DHT22;60446;50.752;4.352;2024-01-11T10:30:16;-4.60;96.30
72440;DHT22;60446;50.752;4.352;2024-01-11T10:32:45;-4.50;95.50
72440;DHT22;60446;50.752;4.352;2024-01-11T10:35:13;-4.40;95.00
72440;DHT22;60446;50.752;4.352;2024-01-11T10:37:41;-4.40;95.00
72440;DHT22;60446;50.752;4.352;2024-01-11T10:40:10;-4.30;94.90
72440;DHT22;60446;50.752;4.352;2024-01-11T10:42:43;-4.30;93.40
72440;DHT22;60446;50.752;4.352;2024-01-11T10:45:16;-4.20;93.80
72440;DHT22;60446;50.752;4.352;2024-01-11T10:50:19;-4.10;93.00
72440;DHT22;60446;50.752;4.352;2024-01-11T10:56:05;-3.90;91.10
72440;DHT22;60446;50.752;4.352;2024-01-11T10:58:35;-3.90;91.60
72440;DHT22;60446;50.752;4.352;2024-01-11T11:01:03;-3.80;91.40
72440;DHT22;60446;50.752;4.352;2024-01-11T11:03:33;-3.60;88.90
72440;DHT22;60446;50.752;4.352;2024-01-11T11:06:05;-3.60;90.00
72440;DHT22;60446;50.752;4.352;2024-01-11T11:08:36;-3.50;88.30
72440;DHT22;60446;50.752;4.352;2024-01-11T11:11:04;-3.50;88.40
72440;DHT22;60446;50.752;4.352;2024-01-11T11:13:33;-3.40;88.20
72440;DHT22;60446;50.752;4.352;2024-01-11T11:16:04;-3.40;87.30
72440;DHT22;60446;50.752;4.352;2024-01-11T11:18:34;-3.30;86.90
72440;DHT22;60446;50.752;4.352;2024-01-11T11:21:10;-3.40;87.70
72440;DHT22;60446;50.752;4.352;2024-01-11T11:23:38;-3.20;86.80
72440;DHT22;60446;50.752;4.352;2024-01-11T11:26:06;-3.20;86.70
72440;DHT22;60446;50.752;4.352;2024-01-11T11:28:35;-3.10;85.90
72440;DHT22;60446;50.752;4.352;2024-01-11T11:31:03;-3.10;85.50
72440;DHT22;60446;50.752;4.352;2024-01-11T11:33:31;-3.00;84.60
72440;DHT22;60446;50.752;4.352;2024-01-11T11:35:59;-3.00;84.60
72440;DHT22;60446;50.752;4.352;2024-01-11T11:38:28;-2.90;83.40
72440;DHT22;60446;50.752;4.352;2024-01-11T11:40:58;-2.90;84.00
72440;DHT22;60446;50.752;4.352;2024-01-11T11:43:27;-2.80;84.10
72440;DHT22;60446;50.752;4.352;2024-01-11T11:45:55;-2.80;85.10
72440;DHT22;60446;50.752;4.352;2024-01-11T11:51:11;-2.70;84.40
72440;DHT22;60446;50.752;4.352;2024-01-11T11:53:40;-2.60;83.50
72440;DHT22;60446;50.752;4.352;2024-01-11T11:56:10;-2.50;83.60
72440;DHT22;60446;50.752;4.352;2024-01-11T11:58:38;-2.50;82.00
72440;DHT22;60446;50.752;4.352;2024-01-11T12:01:09;-2.50;81.30
72440;DHT22;60446;50.752;4.352;2024-01-11T12:03:44;-2.50;81.60
72440;DHT22;60446;50.752;4.352;2024-01-11T12:06:20;-2.50;82.50
72440;DHT22;60446;50.752;4.352;2024-01-11T12:08:53;-2.40;81.30
72440;DHT22;60446;50.752;4.352;2024-01-11T12:11:24;-2.40;81.30
72440;DHT22;60446;50.752;4.352;2024-01-11T12:13:52;-2.40;81.20
72440;DHT22;60446;50.752;4.352;2024-01-11T12:16:20;-2.30;82.50
72440;DHT22;60446;50.752;4.352;2024-01-11T12:18:49;-2.20;81.70
72440;DHT22;60446;50.752;4.352;2024-01-11T12:21:17;-2.10;79.80
72440;DHT22;60446;50.752;4.352;2024-01-11T12:23:45;-2.00;79.70
72440;DHT22;60446;50.752;4.352;2024-01-11T12:26:13;-2.00;79.30
72440;DHT22;60446;50.752;4.352;2024-01-11T12:28:41;-1.90;79.70
72440;DHT22;60446;50.752;4.352;2024-01-11T12:31:11;-1.80;79.80
72440;DHT22;60446;50.752;4.352;2024-01-11T12:33:40;-1.80;77.80
72440;DHT22;60446;50.752;4.352;2024-01-11T12:36:09;-1.60;77.50
72440;DHT22;60446;50.752;4.352;2024-01-11T12:38:37;-1.60;77.30
72440;DHT22;60446;50.752;4.352;2024-01-11T12:41:06;-1.60;77.70
72440;DHT22;60446;50.752;4.352;2024-01-11T12:43:34;-1.60;77.20
72440;DHT22;60446;50.752;4.352;2024-01-11T12:46:02;-1.60;77.00
72440;DHT22;60446;50.752;4.352;2024-01-11T12:48:29;-1.50;76.30
72440;DHT22;60446;50.752;4.352;2024-01-11T12:50:58;-1.50;76.70
72440;DHT22;60446;50.752;4.352;2024-01-11T12:53:45;-1.40;75.60
72440;DHT22;60446;50.752;4.352;2024-01-11T12:56:15;-1.30;74.70
72440;DHT22;60446;50.752;4.352;2024-01-11T12:58:42;-1.20;75.40
72440;DHT22;60446;50.752;4.352;2024-01-11T13:01:10;-1.20;75.20
72440;DHT22;60446;50.752;4.352;2024-01-11T13:03:40;-1.10;74.60
72440;DHT22;60446;50.752;4.352;2024-01-11T13:06:11;-1.10;74.30
72440;DHT22;60446;50.752;4.352;2024-01-11T13:08:40;-1.20;74.70
72440;DHT22;60446;50.752;4.352;2024-01-11T13:11:08;-1.10;74.30
72440;DHT22;60446;50.752;4.352;2024-01-11T13:13:36;-1.10;72.90
72440;DHT22;60446;50.752;4.352;2024-01-11T13:16:03;-1.10;73.50
72440;DHT22;60446;50.752;4.352;2024-01-11T13:18:38;-1.10;74.20
72440;DHT22;60446;50.752;4.352;2024-01-11T13:21:05;-1.10;74.00
72440;DHT22;60446;50.752;4.352;2024-01-11T13:23:36;-1.10;74.00
72440;DHT22;60446;50.752;4.352;2024-01-11T13:26:05;-1.10;74.40
72440;DHT22;60446;50.752;4.352;2024-01-11T13:28:34;-1.00;73.50
72440;DHT22;60446;50.752;4.352;2024-01-11T13:31:01;-1.10;73.80
72440;DHT22;60446;50.752;4.352;2024-01-11T13:33:29;-1.00;73.80
72440;DHT22;60446;50.752;4.352;2024-01-11T13:35:57;-1.00;73.70
72440;DHT22;60446;50.752;4.352;2024-01-11T13:38:24;-1.00;74.10
72440;DHT22;60446;50.752;4.352;2024-01-11T13:40:52;-1.00;74.00
72440;DHT22;60446;50.752;4.352;2024-01-11T13:43:19;-1.00;74.40
72440;DHT22;60446;50.752;4.352;2024-01-11T13:45:47;-1.00;74.60
72440;DHT22;60446;50.752;4.352;2024-01-11T13:48:14;-1.00;75.10
72440;DHT22;60446;50.752;4.352;2024-01-11T13:50:42;-1.00;74.60
72440;DHT22;60446;50.752;4.352;2024-01-11T13:53:09;-1.00;74.70
72440;DHT22;60446;50.752;4.352;2024-01-11T13:55:38;-1.00;75.20
72440;DHT22;60446;50.752;4.352;2024-01-11T13:58:07;-1.00;75.50
72440;DHT22;60446;50.752;4.352;2024-01-11T14:00:35;-1.00;74.90
72440;DHT22;60446;50.752;4.352;2024-01-11T14:03:02;-1.00;75.10
72440;DHT22;60446;50.752;4.352;2024-01-11T14:05:33;-1.00;74.50
72440;DHT22;60446;50.752;4.352;2024-01-11T14:08:03;-1.00;74.80
72440;DHT22;60446;50.752;4.352;2024-01-11T14:10:34;-1.00;74.50
72440;DHT22;60446;50.752;4.352;2024-01-11T14:13:02;-1.10;75.50
72440;DHT22;60446;50.752;4.352;2024-01-11T14:15:32;-1.10;75.30
72440;DHT22;60446;50.752;4.352;2024-01-11T14:17:59;-1.00;76.00
72440;DHT22;60446;50.752;4.352;2024-01-11T14:20:28;-1.00;75.50
72440;DHT22;60446;50.752;4.352;2024-01-11T14:22:56;-1.00;75.40
72440;DHT22;60446;50.752;4.352;2024-01-11T14:25:24;-1.00;74.90
72440;DHT22;60446;50.752;4.352;2024-01-11T14:27:54;-1.00;75.30
72440;DHT22;60446;50.752;4.352;2024-01-11T14:30:21;-1.00;76.20
72440;DHT22;60446;50.752;4.352;2024-01-11T14:32:50;-1.00;76.60
72440;DHT22;60446;50.752;4.352;2024-01-11T14:35:18;-1.10;76.30
72440;DHT22;60446;50.752;4.352;2024-01-11T14:37:46;-1.00;76.10
72440;DHT22;60446;50.752;4.352;2024-01-11T14:40:13;-1.00;75.80
72440;DHT22;60446;50.752;4.352;2024-01-11T14:42:40;-1.00;76.20
72440;DHT22;60446;50.752;4.352;2024-01-11T14:45:08;-1.00;77.00
72440;DHT22;60446;50.752;4.352;2024-01-11T14:47:36;-1.10;77.20
72440;DHT22;60446;50.752;4.352;2024-01-11T14:50:04;-1.00;76.00
72440;DHT22;60446;50.752;4.352;2024-01-11T14:52:37;-1.00;76.20
72440;DHT22;60446;50.752;4.352;2024-01-11T14:55:08;-1.00;76.00
72440;DHT22;60446;50.752;4.352;2024-01-11T14:57:38;-1.10;76.90
72440;DHT22;60446;50.752;4.352;2024-01-11T15:00:06;-1.10;77.10
72440;DHT22;60446;50.752;4.352;2024-01-11T15:02:35;-1.10;75.70
72440;DHT22;60446;50.752;4.352;2024-01-11T15:05:06;-1.10;74.80
72440;DHT22;60446;50.752;4.352;2024-01-11T15:07:34;-1.00;74.50
72440;DHT22;60446;50.752;4.352;2024-01-11T15:10:01;-1.00;73.50
72440;DHT22;60446;50.752;4.352;2024-01-11T15:12:29;-1.00;72.70
72440;DHT22;60446;50.752;4.352;2024-01-11T15:14:56;-1.10;72.80
72440;DHT22;60446;50.752;4.352;2024-01-11T15:17:24;-1.10;72.50
72440;DHT22;60446;50.752;4.352;2024-01-11T15:19:51;-1.20;72.40
72440;DHT22;60446;50.752;4.352;2024-01-11T15:22:18;-1.10;72.10
72440;DHT22;60446;50.752;4.352;2024-01-11T15:24:45;-1.20;72.40
72440;DHT22;60446;50.752;4.352;2024-01-11T15:27:20;-1.20;72.70
72440;DHT22;60446;50.752;4.352;2024-01-11T15:29:49;-1.20;72.20
72440;DHT22;60446;50.752;4.352;2024-01-11T15:32:20;-1.20;71.50
72440;DHT22;60446;50.752;4.352;2024-01-11T15:34:49;-1.20;71.20
72440;DHT22;60446;50.752;4.352;2024-01-11T15:37:16;-1.20;70.60
72440;DHT22;60446;50.752;4.352;2024-01-11T15:39:46;-1.20;70.40
72440;DHT22;60446;50.752;4.352;2024-01-11T15:42:13;-1.30;70.40
72440;DHT22;60446;50.752;4.352;2024-01-11T15:44:41;-1.30;70.50
72440;DHT22;60446;50.752;4.352;2024-01-11T15:47:08;-1.40;71.30
72440;DHT22;60446;50.752;4.352;2024-01-11T15:49:37;-1.40;70.40